sensor_id;sensor_type;location;lat;lon;timestamp;pressure;altitude;pressure_sealevel;temperature
15626;BMP180;7912;51.376;6.126;2023-03-02T00:02:04;102101.00;;;4.80
15626;BMP180;7912;51.376;6.126;2023-03-02T00:04:42;102098.00;;;4.80
15626;BMP180;7912;51.376;6.126;2023-03-02T00:07:22;102102.00;;;4.80
15626;BMP180;7912;51.376;6.126;2023-03-02T00:09:50;102094.00;;;4.70
15626;BMP180;7912;51.376;6.126;2023-03-02T00:12:19;102100.00;;;4.70
15626;BMP180;7912;51.376;6.126;2023-03-02T00:14:47;102109.00;;;4.70
15626;BMP180;7912;51.376;6.126;2023-03-02T00:17:14;102111.00;;;4.70
15626;BMP180;7912;51.376;6.126;2023-03-02T00:19:42;102092.00;;;4.70
15626;BMP180;7912;51.376;6.126;2023-03-02T00:22:11;102084.00;;;4.60
15626;BMP180;7912;51.376;6.126;2023-03-02T00:24:39;102103.00;;;4.60
15626;BMP180;7912;51.376;6.126;2023-03-02T00:27:06;102085.00;;;4.60
15626;BMP180;7912;51.376;6.126;2023-03-02T00:29:34;102084.00;;;4.60
15626;BMP180;7912;51.376;6.126;2023-03-02T00:32:02;102085.00;;;4.60
15626;BMP180;7912;51.376;6.126;2023-03-02T00:34:30;102099.00;;;4.60
15626;BMP180;7912;51.376;6.126;2023-03-02T00:37:01;102091.00;;;4.50
15626;BMP180;7912;51.376;6.126;2023-03-02T00:39:28;102099.00;;;4.50
15626;BMP180;7912;51.376;6.126;2023-03-02T00:41:56;102087.00;;;4.40
15626;BMP180;7912;51.376;6.126;2023-03-02T00:44:24;102095.00;;;4.50
15626;BMP180;7912;51.376;6.126;2023-03-02T00:46:52;102091.00;;;4.40
15626;BMP180;7912;51.376;6.126;2023-03-02T00:49:19;102101.00;;;4.40
15626;BMP180;7912;51.376;6.126;2023-03-02T00:51:47;102112.00;;;4.40
15626;BMP180;7912;51.376;6.126;2023-03-02T00:54:18;102097.00;;;4.40
15626;BMP180;7912;51.376;6.126;2023-03-02T00:56:46;102088.00;;;4.40
15626;BMP180;7912;51.376;6.126;2023-03-02T00:59:13;102097.00;;;4.40
15626;BMP180;7912;51.376;6.126;2023-03-02T01:01:54;102089.00;;;4.30
15626;BMP180;7912;51.376;6.126;2023-03-02T01:04:42;102093.00;;;4.30
15626;BMP180;7912;51.376;6.126;2023-03-02T01:07:15;102091.00;;;4.30
15626;BMP180;7912;51.376;6.126;2023-03-02T01:09:46;102083.00;;;4.20
15626;BMP180;7912;51.376;6.126;2023-03-02T01:12:18;102094.00;;;4.20
15626;BMP180;7912;51.376;6.126;2023-03-02T01:14:48;102079.00;;;4.10
15626;BMP180;7912;51.376;6.126;2023-03-02T01:17:17;102063.00;;;4.10
15626;BMP180;7912;51.376;6.126;2023-03-02T01:19:44;102079.00;;;4.10
15626;BMP180;7912;51.376;6.126;2023-03-02T01:22:12;102063.00;;;4.10
15626;BMP180;7912;51.376;6.126;2023-03-02T01:24:42;102078.00;;;4.10
15626;BMP180;7912;51.376;6.126;2023-03-02T01:27:10;102074.00;;;4.10
15626;BMP180;7912;51.376;6.126;2023-03-02T01:29:38;102076.00;;;4.00
15626;BMP180;7912;51.376;6.126;2023-03-02T01:32:06;102056.00;;;4.00
15626;BMP180;7912;51.376;6.126;2023-03-02T01:34:37;102061.00;;;4.00
15626;BMP180;7912;51.376;6.126;2023-03-02T01:37:05;102062.00;;;4.00
15626;BMP180;7912;51.376;6.126;2023-03-02T01:39:38;102059.00;;;4.00
15626;BMP180;7912;51.376;6.126;2023-03-02T01:42:06;102060.00;;;4.00
15626;BMP180;7912;51.376;6.126;2023-03-02T01:44:43;102061.00;;;4.00
15626;BMP180;7912;51.376;6.126;2023-03-02T01:47:20;102061.00;;;4.00
15626;BMP180;7912;51.376;6.126;2023-03-02T01:50:02;102048.00;;;3.90
15626;BMP180;7912;51.376;6.126;2023-03-02T01:52:34;102053.00;;;3.90
15626;BMP180;7912;51.376;6.126;2023-03-02T01:55:09;102051.00;;;3.90
15626;BMP180;7912;51.376;6.126;2023-03-02T01:57:43;102054.00;;;3.90
15626;BMP180;7912;51.376;6.126;2023-03-02T02:00:28;102056.00;;;3.90
15626;BMP180;7912;51.376;6.126;2023-03-02T02:03:04;102052.00;;;3.90
15626;BMP180;7912;51.376;6.126;2023-03-02T02:05:42;102052.00;;;3.90
15626;BMP180;7912;51.376;6.126;2023-03-02T02:08:10;102046.00;;;3.90
15626;BMP180;7912;51.376;6.126;2023-03-02T02:10:39;102047.00;;;3.90
15626;BMP180;7912;51.376;6.126;2023-03-02T02:13:10;102044.00;;;3.90
15626;BMP180;7912;51.376;6.126;2023-03-02T02:15:39;102044.00;;;3.90
15626;BMP180;7912;51.376;6.126;2023-03-02T02:18:07;102041.00;;;3.90
15626;BMP180;7912;51.376;6.126;2023-03-02T02:20:48;102040.00;;;3.90
15626;BMP180;7912;51.376;6.126;2023-03-02T02:26:51;102035.00;;;3.90
15626;BMP180;7912;51.376;6.126;2023-03-02T02:29:33;102029.00;;;3.90
15626;BMP180;7912;51.376;6.126;2023-03-02T02:32:15;102032.00;;;3.90
15626;BMP180;7912;51.376;6.126;2023-03-02T02:34:59;102027.00;;;3.90
15626;BMP180;7912;51.376;6.126;2023-03-02T02:37:32;102023.00;;;3.80
15626;BMP180;7912;51.376;6.126;2023-03-02T02:40:03;102020.00;;;3.80
15626;BMP180;7912;51.376;6.126;2023-03-02T02:42:42;102025.00;;;3.80
15626;BMP180;7912;51.376;6.126;2023-03-02T02:45:25;102017.00;;;3.80
15626;BMP180;7912;51.376;6.126;2023-03-02T02:47:55;102029.00;;;3.80
15626;BMP180;7912;51.376;6.126;2023-03-02T02:50:35;102024.00;;;3.70
15626;BMP180;7912;51.376;6.126;2023-03-02T02:53:53;102024.00;;;3.70
15626;BMP180;7912;51.376;6.126;2023-03-02T02:56:37;102020.00;;;3.70
15626;BMP180;7912;51.376;6.126;2023-03-02T02:59:20;102014.00;;;3.70
15626;BMP180;7912;51.376;6.126;2023-03-02T03:01:49;102014.00;;;3.70
15626;BMP180;7912;51.376;6.126;2023-03-02T03:04:28;102018.00;;;3.70
15626;BMP180;7912;51.376;6.126;2023-03-02T03:07:03;102017.00;;;3.70
15626;BMP180;7912;51.376;6.126;2023-03-02T03:09:31;102015.00;;;3.70
15626;BMP180;7912;51.376;6.126;2023-03-02T03:12:16;102020.00;;;3.70
15626;BMP180;7912;51.376;6.126;2023-03-02T03:14:45;102025.00;;;3.70
15626;BMP180;7912;51.376;6.126;2023-03-02T03:17:13;102023.00;;;3.80
15626;BMP180;7912;51.376;6.126;2023-03-02T03:19:43;102006.00;;;3.70
15626;BMP180;7912;51.376;6.126;2023-03-02T03:22:13;102019.00;;;3.80
15626;BMP180;7912;51.376;6.126;2023-03-02T03:24:44;102021.00;;;3.80
15626;BMP180;7912;51.376;6.126;2023-03-02T03:27:14;102021.00;;;3.80
15626;BMP180;7912;51.376;6.126;2023-03-02T03:29:45;102004.00;;;3.80
15626;BMP180;7912;51.376;6.126;2023-03-02T03:32:14;101999.00;;;3.80
15626;BMP180;7912;51.376;6.126;2023-03-02T03:34:42;102001.00;;;3.80
15626;BMP180;7912;51.376;6.126;2023-03-02T03:37:14;102019.00;;;3.80
15626;BMP180;7912;51.376;6.126;2023-03-02T03:39:42;102011.00;;;3.70
15626;BMP180;7912;51.376;6.126;2023-03-02T03:42:10;102015.00;;;3.70
15626;BMP180;7912;51.376;6.126;2023-03-02T03:44:37;102011.00;;;3.70
15626;BMP180;7912;51.376;6.126;2023-03-02T03:47:05;102018.00;;;3.70
15626;BMP180;7912;51.376;6.126;2023-03-02T03:49:32;102025.00;;;3.70
15626;BMP180;7912;51.376;6.126;2023-03-02T03:51:59;102009.00;;;3.70
15626;BMP180;7912;51.376;6.126;2023-03-02T03:54:26;102009.00;;;3.70
15626;BMP180;7912;51.376;6.126;2023-03-02T03:56:54;102018.00;;;3.60
15626;BMP180;7912;51.376;6.126;2023-03-02T03:59:24;102016.00;;;3.60
15626;BMP180;7912;51.376;6.126;2023-03-02T04:01:56;102018.00;;;3.60
15626;BMP180;7912;51.376;6.126;2023-03-02T04:04:28;102006.00;;;3.50
15626;BMP180;7912;51.376;6.126;2023-03-02T04:06:57;102017.00;;;3.60
15626;BMP180;7912;51.376;6.126;2023-03-02T04:09:25;102010.00;;;3.60
15626;BMP180;7912;51.376;6.126;2023-03-02T04:11:56;102020.00;;;3.60
15626;BMP180;7912;51.376;6.126;2023-03-02T04:14:23;102016.00;;;3.50
15626;BMP180;7912;51.376;6.126;2023-03-02T04:16:51;102020.00;;;3.50
15626;BMP180;7912;51.376;6.126;2023-03-02T04:19:19;102018.00;;;3.50
15626;BMP180;7912;51.376;6.126;2023-03-02T04:21:51;102020.00;;;3.50
15626;BMP180;7912;51.376;6.126;2023-03-02T04:24:21;102013.00;;;3.50
15626;BMP180;7912;51.376;6.126;2023-03-02T04:26:49;102017.00;;;3.50
15626;BMP180;7912;51.376;6.126;2023-03-02T04:29:17;102018.00;;;3.40
15626;BMP180;7912;51.376;6.126;2023-03-02T04:31:45;102019.00;;;3.40
15626;BMP180;7912;51.376;6.126;2023-03-02T04:34:14;102014.00;;;3.40
15626;BMP180;7912;51.376;6.126;2023-03-02T04:36:42;102017.00;;;3.40
15626;BMP180;7912;51.376;6.126;2023-03-02T04:39:14;102002.00;;;3.40
15626;BMP180;7912;51.376;6.126;2023-03-02T04:42:00;102008.00;;;3.30
15626;BMP180;7912;51.376;6.126;2023-03-02T04:44:27;102003.00;;;3.30
15626;BMP180;7912;51.376;6.126;2023-03-02T04:46:55;102004.00;;;3.30
15626;BMP180;7912;51.376;6.126;2023-03-02T04:49:22;102006.00;;;3.20
15626;BMP180;7912;51.376;6.126;2023-03-02T04:51:50;102010.00;;;3.20
15626;BMP180;7912;51.376;6.126;2023-03-02T04:54:25;101991.00;;;3.20
15626;BMP180;7912;51.376;6.126;2023-03-02T04:56:58;102011.00;;;3.20
15626;BMP180;7912;51.376;6.126;2023-03-02T04:59:28;101989.00;;;3.20
15626;BMP180;7912;51.376;6.126;2023-03-02T05:01:58;102012.00;;;3.20
15626;BMP180;7912;51.376;6.126;2023-03-02T05:04:27;102011.00;;;3.20
15626;BMP180;7912;51.376;6.126;2023-03-02T05:06:57;102000.00;;;3.20
15626;BMP180;7912;51.376;6.126;2023-03-02T05:09:25;102001.00;;;3.20
15626;BMP180;7912;51.376;6.126;2023-03-02T05:11:56;102005.00;;;3.20
15626;BMP180;7912;51.376;6.126;2023-03-02T05:14:25;102014.00;;;3.20
15626;BMP180;7912;51.376;6.126;2023-03-02T05:16:53;101993.00;;;3.20
15626;BMP180;7912;51.376;6.126;2023-03-02T05:19:20;102002.00;;;3.20
15626;BMP180;7912;51.376;6.126;2023-03-02T05:21:48;102008.00;;;3.20
15626;BMP180;7912;51.376;6.126;2023-03-02T05:24:17;102016.00;;;3.20
15626;BMP180;7912;51.376;6.126;2023-03-02T05:26:45;102011.00;;;3.20
15626;BMP180;7912;51.376;6.126;2023-03-02T05:29:12;102011.00;;;3.20
15626;BMP180;7912;51.376;6.126;2023-03-02T05:31:42;102003.00;;;3.20
15626;BMP180;7912;51.376;6.126;2023-03-02T05:34:13;102008.00;;;3.10
15626;BMP180;7912;51.376;6.126;2023-03-02T05:36:41;102004.00;;;3.20
15626;BMP180;7912;51.376;6.126;2023-03-02T05:39:08;102006.00;;;3.20
15626;BMP180;7912;51.376;6.126;2023-03-02T05:41:36;102001.00;;;3.20
15626;BMP180;7912;51.376;6.126;2023-03-02T05:44:05;101997.00;;;3.10
15626;BMP180;7912;51.376;6.126;2023-03-02T05:46:35;102013.00;;;3.10
15626;BMP180;7912;51.376;6.126;2023-03-02T05:49:03;102018.00;;;3.10
15626;BMP180;7912;51.376;6.126;2023-03-02T05:51:30;102022.00;;;3.10
15626;BMP180;7912;51.376;6.126;2023-03-02T05:53:58;101993.00;;;3.10
15626;BMP180;7912;51.376;6.126;2023-03-02T05:56:25;102006.00;;;3.10
15626;BMP180;7912;51.376;6.126;2023-03-02T05:58:52;101995.00;;;3.10
15626;BMP180;7912;51.376;6.126;2023-03-02T06:01:20;102001.00;;;3.00
15626;BMP180;7912;51.376;6.126;2023-03-02T06:03:47;102009.00;;;3.10
15626;BMP180;7912;51.376;6.126;2023-03-02T06:06:15;101999.00;;;3.00
15626;BMP180;7912;51.376;6.126;2023-03-02T06:08:43;102002.00;;;3.00
15626;BMP180;7912;51.376;6.126;2023-03-02T06:11:11;102011.00;;;3.00
15626;BMP180;7912;51.376;6.126;2023-03-02T06:13:39;102003.00;;;3.00
15626;BMP180;7912;51.376;6.126;2023-03-02T06:16:08;102000.00;;;3.00
15626;BMP180;7912;51.376;6.126;2023-03-02T06:18:37;102012.00;;;3.00
15626;BMP180;7912;51.376;6.126;2023-03-02T06:21:08;102004.00;;;2.90
15626;BMP180;7912;51.376;6.126;2023-03-02T06:23:35;102013.00;;;2.90
15626;BMP180;7912;51.376;6.126;2023-03-02T06:26:09;101997.00;;;2.90
15626;BMP180;7912;51.376;6.126;2023-03-02T06:28:37;102008.00;;;2.90
15626;BMP180;7912;51.376;6.126;2023-03-02T06:31:18;101991.00;;;2.90
15626;BMP180;7912;51.376;6.126;2023-03-02T06:33:45;102008.00;;;2.90
15626;BMP180;7912;51.376;6.126;2023-03-02T06:36:13;101989.00;;;2.90
15626;BMP180;7912;51.376;6.126;2023-03-02T06:38:43;102002.00;;;2.90
15626;BMP180;7912;51.376;6.126;2023-03-02T06:41:12;102012.00;;;2.90
15626;BMP180;7912;51.376;6.126;2023-03-02T06:43:40;102012.00;;;2.90
15626;BMP180;7912;51.376;6.126;2023-03-02T06:46:08;102012.00;;;2.90
15626;BMP180;7912;51.376;6.126;2023-03-02T06:48:38;102013.00;;;2.90
15626;BMP180;7912;51.376;6.126;2023-03-02T06:51:05;102009.00;;;2.90
15626;BMP180;7912;51.376;6.126;2023-03-02T06:53:33;102004.00;;;2.90
15626;BMP180;7912;51.376;6.126;2023-03-02T06:56:04;102004.00;;;3.00
15626;BMP180;7912;51.376;6.126;2023-03-02T06:58:50;102019.00;;;3.10
15626;BMP180;7912;51.376;6.126;2023-03-02T07:01:20;102017.00;;;3.10
15626;BMP180;7912;51.376;6.126;2023-03-02T07:03:48;102019.00;;;3.10
15626;BMP180;7912;51.376;6.126;2023-03-02T07:06:17;102016.00;;;3.10
15626;BMP180;7912;51.376;6.126;2023-03-02T07:08:45;102018.00;;;3.20
15626;BMP180;7912;51.376;6.126;2023-03-02T07:11:12;102011.00;;;3.20
15626;BMP180;7912;51.376;6.126;2023-03-02T07:13:39;102012.00;;;3.20
15626;BMP180;7912;51.376;6.126;2023-03-02T07:16:10;102010.00;;;3.30
15626;BMP180;7912;51.376;6.126;2023-03-02T07:18:38;102013.00;;;3.20
15626;BMP180;7912;51.376;6.126;2023-03-02T07:21:06;102007.00;;;3.30
15626;BMP180;7912;51.376;6.126;2023-03-02T07:23:34;102002.00;;;3.40
15626;BMP180;7912;51.376;6.126;2023-03-02T07:26:01;102003.00;;;3.50
15626;BMP180;7912;51.376;6.126;2023-03-02T07:28:29;102009.00;;;3.50
15626;BMP180;7912;51.376;6.126;2023-03-02T07:31:00;102016.00;;;3.50
15626;BMP180;7912;51.376;6.126;2023-03-02T07:33:28;102002.00;;;3.60
15626;BMP180;7912;51.376;6.126;2023-03-02T07:35:55;102009.00;;;3.60
15626;BMP180;7912;51.376;6.126;2023-03-02T07:38:23;102019.00;;;3.70
15626;BMP180;7912;51.376;6.126;2023-03-02T07:40:50;102021.00;;;3.70
15626;BMP180;7912;51.376;6.126;2023-03-02T07:43:18;102016.00;;;3.70
15626;BMP180;7912;51.376;6.126;2023-03-02T07:45:45;102025.00;;;3.80
15626;BMP180;7912;51.376;6.126;2023-03-02T07:48:12;102020.00;;;3.90
15626;BMP180;7912;51.376;6.126;2023-03-02T07:50:40;102019.00;;;3.90
15626;BMP180;7912;51.376;6.126;2023-03-02T07:53:07;102028.00;;;4.00
15626;BMP180;7912;51.376;6.126;2023-03-02T07:55:39;102027.00;;;4.00
15626;BMP180;7912;51.376;6.126;2023-03-02T07:58:06;102030.00;;;4.10
15626;BMP180;7912;51.376;6.126;2023-03-02T08:00:33;102023.00;;;4.20
15626;BMP180;7912;51.376;6.126;2023-03-02T08:03:02;102037.00;;;4.30
15626;BMP180;7912;51.376;6.126;2023-03-02T08:05:30;102035.00;;;4.40
15626;BMP180;7912;51.376;6.126;2023-03-02T08:07:57;102034.00;;;4.40
15626;BMP180;7912;51.376;6.126;2023-03-02T08:10:25;102037.00;;;4.50
15626;BMP180;7912;51.376;6.126;2023-03-02T08:12:52;102028.00;;;4.60
15626;BMP180;7912;51.376;6.126;2023-03-02T08:15:20;102031.00;;;4.70
15626;BMP180;7912;51.376;6.126;2023-03-02T08:17:47;102027.00;;;4.80
15626;BMP180;7912;51.376;6.126;2023-03-02T08:20:15;102039.00;;;4.90
15626;BMP180;7912;51.376;6.126;2023-03-02T08:22:42;102029.00;;;4.90
15626;BMP180;7912;51.376;6.126;2023-03-02T08:25:09;102017.00;;;5.00
15626;BMP180;7912;51.376;6.126;2023-03-02T08:27:37;102017.00;;;5.10
15626;BMP180;7912;51.376;6.126;2023-03-02T08:30:07;102024.00;;;5.20
15626;BMP180;7912;51.376;6.126;2023-03-02T08:32:34;102006.00;;;5.20
15626;BMP180;7912;51.376;6.126;2023-03-02T08:35:03;102021.00;;;5.30
15626;BMP180;7912;51.376;6.126;2023-03-02T08:37:31;102022.00;;;5.40
15626;BMP180;7912;51.376;6.126;2023-03-02T08:39:58;102026.00;;;5.40
15626;BMP180;7912;51.376;6.126;2023-03-02T08:42:25;102019.00;;;5.50
15626;BMP180;7912;51.376;6.126;2023-03-02T08:44:52;102006.00;;;5.60
15626;BMP180;7912;51.376;6.126;2023-03-02T08:47:20;102021.00;;;5.70
15626;BMP180;7912;51.376;6.126;2023-03-02T08:49:47;102019.00;;;5.80
15626;BMP180;7912;51.376;6.126;2023-03-02T08:52:16;102007.00;;;5.80
15626;BMP180;7912;51.376;6.126;2023-03-02T08:54:43;102011.00;;;5.90
15626;BMP180;7912;51.376;6.126;2023-03-02T08:57:11;102013.00;;;5.90
15626;BMP180;7912;51.376;6.126;2023-03-02T08:59:38;101999.00;;;6.00
15626;BMP180;7912;51.376;6.126;2023-03-02T09:02:10;102005.00;;;6.20
15626;BMP180;7912;51.376;6.126;2023-03-02T09:04:38;102013.00;;;6.30
15626;BMP180;7912;51.376;6.126;2023-03-02T09:07:05;102005.00;;;6.40
15626;BMP180;7912;51.376;6.126;2023-03-02T09:09:32;102001.00;;;6.50
15626;BMP180;7912;51.376;6.126;2023-03-02T09:12:00;102001.00;;;6.60
15626;BMP180;7912;51.376;6.126;2023-03-02T09:14:27;101994.00;;;6.70
15626;BMP180;7912;51.376;6.126;2023-03-02T09:16:54;101986.00;;;6.70
15626;BMP180;7912;51.376;6.126;2023-03-02T09:19:22;101988.00;;;6.70
15626;BMP180;7912;51.376;6.126;2023-03-02T09:21:49;101974.00;;;6.90
15626;BMP180;7912;51.376;6.126;2023-03-02T09:24:17;101980.00;;;6.90
15626;BMP180;7912;51.376;6.126;2023-03-02T09:26:44;101979.00;;;7.10
15626;BMP180;7912;51.376;6.126;2023-03-02T09:29:11;101973.00;;;7.10
15626;BMP180;7912;51.376;6.126;2023-03-02T09:31:39;101973.00;;;7.20
15626;BMP180;7912;51.376;6.126;2023-03-02T09:34:06;101967.00;;;7.30
15626;BMP180;7912;51.376;6.126;2023-03-02T09:36:34;101967.00;;;7.40
15626;BMP180;7912;51.376;6.126;2023-03-02T09:39:01;101966.00;;;7.50
15626;BMP180;7912;51.376;6.126;2023-03-02T09:45:07;101968.00;;;7.70
15626;BMP180;7912;51.376;6.126;2023-03-02T09:50:32;101972.00;;;8.00
15626;BMP180;7912;51.376;6.126;2023-03-02T09:55:36;101978.00;;;8.20
15626;BMP180;7912;51.376;6.126;2023-03-02T09:58:18;101977.00;;;8.30
15626;BMP180;7912;51.376;6.126;2023-03-02T10:00:47;101976.00;;;8.40
15626;BMP180;7912;51.376;6.126;2023-03-02T10:03:29;101979.00;;;8.50
15626;BMP180;7912;51.376;6.126;2023-03-02T10:05:58;101990.00;;;8.70
15626;BMP180;7912;51.376;6.126;2023-03-02T10:08:35;101976.00;;;9.10
15626;BMP180;7912;51.376;6.126;2023-03-02T10:14:23;101974.00;;;10.60
15626;BMP180;7912;51.376;6.126;2023-03-02T10:20:00;101960.00;;;11.90
15626;BMP180;7912;51.376;6.126;2023-03-02T10:22:40;101952.00;;;12.40
15626;BMP180;7912;51.376;6.126;2023-03-02T10:25:36;101945.00;;;13.00
15626;BMP180;7912;51.376;6.126;2023-03-02T10:28:37;101932.00;;;13.50
15626;BMP180;7912;51.376;6.126;2023-03-02T10:31:17;101934.00;;;13.90
15626;BMP180;7912;51.376;6.126;2023-03-02T10:33:48;101926.00;;;14.30
15626;BMP180;7912;51.376;6.126;2023-03-02T10:36:24;101940.00;;;14.70
15626;BMP180;7912;51.376;6.126;2023-03-02T10:38:54;101939.00;;;15.00
15626;BMP180;7912;51.376;6.126;2023-03-02T10:41:50;101932.00;;;15.20
15626;BMP180;7912;51.376;6.126;2023-03-02T10:44:30;101942.00;;;15.60
15626;BMP180;7912;51.376;6.126;2023-03-02T10:46:58;101939.00;;;15.70
15626;BMP180;7912;51.376;6.126;2023-03-02T10:49:36;101931.00;;;15.70
15626;BMP180;7912;51.376;6.126;2023-03-02T10:52:13;101931.00;;;15.80
15626;BMP180;7912;51.376;6.126;2023-03-02T10:54:41;101927.00;;;15.90
15626;BMP180;7912;51.376;6.126;2023-03-02T10:57:40;101927.00;;;16.10
15626;BMP180;7912;51.376;6.126;2023-03-02T11:00:23;101916.00;;;16.30
15626;BMP180;7912;51.376;6.126;2023-03-02T11:03:21;101922.00;;;16.40
15626;BMP180;7912;51.376;6.126;2023-03-02T11:05:49;101917.00;;;16.50
15626;BMP180;7912;51.376;6.126;2023-03-02T11:08:18;101927.00;;;16.50
15626;BMP180;7912;51.376;6.126;2023-03-02T11:11:02;101925.00;;;16.40
15626;BMP180;7912;51.376;6.126;2023-03-02T11:16:21;101929.00;;;16.40
15626;BMP180;7912;51.376;6.126;2023-03-02T11:19:20;101926.00;;;16.40
15626;BMP180;7912;51.376;6.126;2023-03-02T11:24:47;101936.00;;;16.60
15626;BMP180;7912;51.376;6.126;2023-03-02T11:27:26;101924.00;;;16.80
15626;BMP180;7912;51.376;6.126;2023-03-02T11:32:53;101932.00;;;16.80
15626;BMP180;7912;51.376;6.126;2023-03-02T11:38:46;101929.00;;;17.00
15626;BMP180;7912;51.376;6.126;2023-03-02T11:41:29;101931.00;;;17.10
15626;BMP180;7912;51.376;6.126;2023-03-02T11:44:12;101917.00;;;17.10
15626;BMP180;7912;51.376;6.126;2023-03-02T11:46:45;101914.00;;;17.20
15626;BMP180;7912;51.376;6.126;2023-03-02T11:49:30;101916.00;;;17.30
15626;BMP180;7912;51.376;6.126;2023-03-02T11:52:00;101905.00;;;17.40
15626;BMP180;7912;51.376;6.126;2023-03-02T11:54:45;101907.00;;;17.40
15626;BMP180;7912;51.376;6.126;2023-03-02T11:57:36;101907.00;;;17.40
15626;BMP180;7912;51.376;6.126;2023-03-02T12:00:33;101910.00;;;17.20
15626;BMP180;7912;51.376;6.126;2023-03-02T12:03:50;101910.00;;;17.10
15626;BMP180;7912;51.376;6.126;2023-03-02T12:09:34;101907.00;;;17.20
15626;BMP180;7912;51.376;6.126;2023-03-02T12:14:48;101896.00;;;17.10
15626;BMP180;7912;51.376;6.126;2023-03-02T12:17:31;101897.00;;;17.10
15626;BMP180;7912;51.376;6.126;2023-03-02T12:20:23;101890.00;;;17.20
15626;BMP180;7912;51.376;6.126;2023-03-02T12:22:53;101898.00;;;17.30
15626;BMP180;7912;51.376;6.126;2023-03-02T12:25:42;101888.00;;;17.40
15626;BMP180;7912;51.376;6.126;2023-03-02T12:28:33;101884.00;;;17.60
15626;BMP180;7912;51.376;6.126;2023-03-02T12:31:11;101876.00;;;17.80
15626;BMP180;7912;51.376;6.126;2023-03-02T12:33:51;101880.00;;;17.90
15626;BMP180;7912;51.376;6.126;2023-03-02T12:36:30;101870.00;;;18.00
15626;BMP180;7912;51.376;6.126;2023-03-02T12:39:37;101874.00;;;18.20
15626;BMP180;7912;51.376;6.126;2023-03-02T12:47:27;101863.00;;;18.30
15626;BMP180;7912;51.376;6.126;2023-03-02T12:50:13;101846.00;;;18.30
15626;BMP180;7912;51.376;6.126;2023-03-02T12:52:42;101856.00;;;18.30
15626;BMP180;7912;51.376;6.126;2023-03-02T12:55:17;101859.00;;;18.30
15626;BMP180;7912;51.376;6.126;2023-03-02T12:57:51;101847.00;;;18.20
15626;BMP180;7912;51.376;6.126;2023-03-02T13:00:23;101847.00;;;18.20
15626;BMP180;7912;51.376;6.126;2023-03-02T13:02:55;101840.00;;;18.00
15626;BMP180;7912;51.376;6.126;2023-03-02T13:05:30;101835.00;;;18.10
15626;BMP180;7912;51.376;6.126;2023-03-02T13:08:17;101847.00;;;18.10
15626;BMP180;7912;51.376;6.126;2023-03-02T13:10:52;101836.00;;;18.10
15626;BMP180;7912;51.376;6.126;2023-03-02T13:13:27;101824.00;;;18.10
15626;BMP180;7912;51.376;6.126;2023-03-02T13:16:06;101827.00;;;18.30
15626;BMP180;7912;51.376;6.126;2023-03-02T13:18:36;101817.00;;;18.40
15626;BMP180;7912;51.376;6.126;2023-03-02T13:21:05;101817.00;;;18.50
15626;BMP180;7912;51.376;6.126;2023-03-02T13:23:46;101817.00;;;18.50
15626;BMP180;7912;51.376;6.126;2023-03-02T13:26:31;101823.00;;;18.70
15626;BMP180;7912;51.376;6.126;2023-03-02T13:29:18;101815.00;;;18.70
15626;BMP180;7912;51.376;6.126;2023-03-02T13:31:46;101813.00;;;18.80
15626;BMP180;7912;51.376;6.126;2023-03-02T13:34:27;101814.00;;;18.90
15626;BMP180;7912;51.376;6.126;2023-03-02T13:36:55;101823.00;;;19.00
15626;BMP180;7912;51.376;6.126;2023-03-02T13:39:29;101822.00;;;19.00
15626;BMP180;7912;51.376;6.126;2023-03-02T13:42:02;101828.00;;;18.90
15626;BMP180;7912;51.376;6.126;2023-03-02T13:44:32;101828.00;;;18.90
15626;BMP180;7912;51.376;6.126;2023-03-02T13:47:01;101821.00;;;18.80
15626;BMP180;7912;51.376;6.126;2023-03-02T13:49:34;101825.00;;;18.80
15626;BMP180;7912;51.376;6.126;2023-03-02T13:52:15;101813.00;;;18.80
15626;BMP180;7912;51.376;6.126;2023-03-02T13:54:45;101813.00;;;19.00
15626;BMP180;7912;51.376;6.126;2023-03-02T13:57:20;101820.00;;;19.10
15626;BMP180;7912;51.376;6.126;2023-03-02T13:59:50;101808.00;;;19.20
15626;BMP180;7912;51.376;6.126;2023-03-02T14:02:28;101811.00;;;19.30
15626;BMP180;7912;51.376;6.126;2023-03-02T14:04:56;101809.00;;;19.20
15626;BMP180;7912;51.376;6.126;2023-03-02T14:07:24;101806.00;;;19.20
15626;BMP180;7912;51.376;6.126;2023-03-02T14:09:51;101798.00;;;19.10
15626;BMP180;7912;51.376;6.126;2023-03-02T14:12:22;101801.00;;;19.10
15626;BMP180;7912;51.376;6.126;2023-03-02T14:14:56;101808.00;;;19.00
15626;BMP180;7912;51.376;6.126;2023-03-02T14:17:25;101802.00;;;19.00
15626;BMP180;7912;51.376;6.126;2023-03-02T14:19:53;101794.00;;;19.00
15626;BMP180;7912;51.376;6.126;2023-03-02T14:22:31;101788.00;;;18.90
15626;BMP180;7912;51.376;6.126;2023-03-02T14:25:12;101786.00;;;18.90
15626;BMP180;7912;51.376;6.126;2023-03-02T14:27:58;101805.00;;;18.80
15626;BMP180;7912;51.376;6.126;2023-03-02T14:30:25;101798.00;;;18.70
15626;BMP180;7912;51.376;6.126;2023-03-02T14:32:53;101790.00;;;18.70
15626;BMP180;7912;51.376;6.126;2023-03-02T14:35:21;101790.00;;;18.60
15626;BMP180;7912;51.376;6.126;2023-03-02T14:37:50;101788.00;;;18.50
15626;BMP180;7912;51.376;6.126;2023-03-02T14:40:26;101789.00;;;18.30
15626;BMP180;7912;51.376;6.126;2023-03-02T14:42:54;101781.00;;;18.30
15626;BMP180;7912;51.376;6.126;2023-03-02T14:45:23;101775.00;;;18.30
15626;BMP180;7912;51.376;6.126;2023-03-02T14:47:51;101776.00;;;18.20
15626;BMP180;7912;51.376;6.126;2023-03-02T14:50:18;101783.00;;;18.20
15626;BMP180;7912;51.376;6.126;2023-03-02T14:52:51;101779.00;;;18.20
15626;BMP180;7912;51.376;6.126;2023-03-02T14:55:27;101780.00;;;18.20
15626;BMP180;7912;51.376;6.126;2023-03-02T14:57:59;101772.00;;;18.20
15626;BMP180;7912;51.376;6.126;2023-03-02T15:00:29;101773.00;;;18.20
15626;BMP180;7912;51.376;6.126;2023-03-02T15:02:57;101779.00;;;18.10
15626;BMP180;7912;51.376;6.126;2023-03-02T15:05:25;101777.00;;;18.10
15626;BMP180;7912;51.376;6.126;2023-03-02T15:07:52;101768.00;;;18.00
15626;BMP180;7912;51.376;6.126;2023-03-02T15:10:24;101759.00;;;17.90
15626;BMP180;7912;51.376;6.126;2023-03-02T15:12:52;101755.00;;;17.80
15626;BMP180;7912;51.376;6.126;2023-03-02T15:15:19;101778.00;;;17.80
15626;BMP180;7912;51.376;6.126;2023-03-02T15:17:46;101782.00;;;17.80
15626;BMP180;7912;51.376;6.126;2023-03-02T15:20:15;101777.00;;;17.70
15626;BMP180;7912;51.376;6.126;2023-03-02T15:22:43;101789.00;;;17.60
15626;BMP180;7912;51.376;6.126;2023-03-02T15:25:10;101778.00;;;17.50
15626;BMP180;7912;51.376;6.126;2023-03-02T15:27:37;101767.00;;;17.30